sensor_id;sensor_type;location;lat;lon;timestamp;P1;durP1;ratioP1;P2;durP2;ratioP2
46391;SDS011;32098;49.448;7.904;2023-04-15T00:01:02;4.53;;;2.30;;
46391;SDS011;32098;49.448;7.904;2023-04-15T00:03:29;3.17;;;2.13;;
46391;SDS011;32098;49.448;7.904;2023-04-15T00:05:56;4.93;;;2.03;;
46391;SDS011;32098;49.448;7.904;2023-04-15T00:08:23;7.27;;;2.57;;
46391;SDS011;32098;49.448;7.904;2023-04-15T00:10:50;6.17;;;2.23;;
46391;SDS011;32098;49.448;7.904;2023-04-15T00:13:18;4.43;;;2.17;;
46391;SDS011;32098;49.448;7.904;2023-04-15T00:15:45;3.40;;;1.83;;
46391;SDS011;32098;49.448;7.904;2023-04-15T00:18:12;3.83;;;2.00;;
46391;SDS011;32098;49.448;7.904;2023-04-15T00:20:39;3.73;;;2.13;;
46391;SDS011;32098;49.448;7.904;2023-04-15T00:26:19;3.03;;;2.03;;
46391;SDS011;32098;49.448;7.904;2023-04-15T00:28:48;2.83;;;2.47;;
46391;SDS011;32098;49.448;7.904;2023-04-15T00:31:14;4.43;;;2.13;;
46391;SDS011;32098;49.448;7.904;2023-04-15T00:36:35;5.30;;;2.47;;
46391;SDS011;32098;49.448;7.904;2023-04-15T00:39:14;4.07;;;2.50;;
46391;SDS011;32098;49.448;7.904;2023-04-15T00:41:42;4.37;;;2.03;;
46391;SDS011;32098;49.448;7.904;2023-04-15T00:44:08;3.20;;;1.90;;
46391;SDS011;32098;49.448;7.904;2023-04-15T00:49:19;3.50;;;1.93;;
46391;SDS011;32098;49.448;7.904;2023-04-15T00:51:46;2.73;;;1.93;;
46391;SDS011;32098;49.448;7.904;2023-04-15T00:57:07;4.33;;;2.07;;
46391;SDS011;32098;49.448;7.904;2023-04-15T00:59:34;3.93;;;2.13;;
46391;SDS011;32098;49.448;7.904;2023-04-15T01:02:01;5.67;;;2.47;;
46391;SDS011;32098;49.448;7.904;2023-04-15T01:04:28;3.53;;;2.20;;
46391;SDS011;32098;49.448;7.904;2023-04-15T01:06:56;3.60;;;2.33;;
46391;SDS011;32098;49.448;7.904;2023-04-15T01:09:23;3.57;;;2.10;;
46391;SDS011;32098;49.448;7.904;2023-04-15T01:18:52;3.30;;;2.10;;
46391;SDS011;32098;49.448;7.904;2023-04-15T01:24:31;4.67;;;2.10;;
46391;SDS011;32098;49.448;7.904;2023-04-15T01:26:59;5.03;;;2.23;;
46391;SDS011;32098;49.448;7.904;2023-04-15T01:29:26;4.50;;;1.80;;
46391;SDS011;32098;49.448;7.904;2023-04-15T01:31:54;3.57;;;1.73;;
46391;SDS011;32098;49.448;7.904;2023-04-15T01:38:13;3.87;;;2.03;;
46391;SDS011;32098;49.448;7.904;2023-04-15T01:40:40;3.87;;;1.90;;
46391;SDS011;32098;49.448;7.904;2023-04-15T01:46:00;2.93;;;1.70;;
46391;SDS011;32098;49.448;7.904;2023-04-15T01:48:27;3.70;;;2.07;;
46391;SDS011;32098;49.448;7.904;2023-04-15T01:53:58;3.37;;;1.80;;
46391;SDS011;32098;49.448;7.904;2023-04-15T01:56:25;2.30;;;1.60;;
46391;SDS011;32098;49.448;7.904;2023-04-15T01:58:52;2.67;;;1.53;;
46391;SDS011;32098;49.448;7.904;2023-04-15T02:01:30;3.40;;;1.67;;
46391;SDS011;32098;49.448;7.904;2023-04-15T02:03:58;3.10;;;1.87;;
46391;SDS011;32098;49.448;7.904;2023-04-15T02:06:25;2.33;;;1.67;;
46391;SDS011;32098;49.448;7.904;2023-04-15T02:08:54;3.57;;;1.73;;
46391;SDS011;32098;49.448;7.904;2023-04-15T02:11:20;3.87;;;1.90;;
46391;SDS011;32098;49.448;7.904;2023-04-15T02:13:48;4.30;;;1.80;;
46391;SDS011;32098;49.448;7.904;2023-04-15T02:16:17;4.97;;;1.90;;
46391;SDS011;32098;49.448;7.904;2023-04-15T02:18:45;5.57;;;1.97;;
46391;SDS011;32098;49.448;7.904;2023-04-15T02:24:16;3.50;;;1.80;;
46391;SDS011;32098;49.448;7.904;2023-04-15T02:26:43;3.00;;;2.20;;
46391;SDS011;32098;49.448;7.904;2023-04-15T02:29:09;6.00;;;2.00;;
46391;SDS011;32098;49.448;7.904;2023-04-15T02:31:37;4.40;;;1.97;;
46391;SDS011;32098;49.448;7.904;2023-04-15T02:34:06;4.20;;;2.07;;
46391;SDS011;32098;49.448;7.904;2023-04-15T02:39:23;3.03;;;1.87;;
46391;SDS011;32098;49.448;7.904;2023-04-15T02:41:49;5.67;;;1.93;;
46391;SDS011;32098;49.448;7.904;2023-04-15T02:44:19;4.33;;;1.90;;
46391;SDS011;32098;49.448;7.904;2023-04-15T02:47:01;3.83;;;1.60;;
46391;SDS011;32098;49.448;7.904;2023-04-15T02:49:27;2.90;;;1.90;;
46391;SDS011;32098;49.448;7.904;2023-04-15T02:51:56;3.37;;;1.60;;
46391;SDS011;32098;49.448;7.904;2023-04-15T02:54:23;3.30;;;1.70;;
46391;SDS011;32098;49.448;7.904;2023-04-15T02:56:51;4.20;;;2.17;;
46391;SDS011;32098;49.448;7.904;2023-04-15T02:59:20;3.50;;;1.83;;
46391;SDS011;32098;49.448;7.904;2023-04-15T03:01:47;6.73;;;2.33;;
46391;SDS011;32098;49.448;7.904;2023-04-15T03:04:14;3.20;;;1.70;;
46391;SDS011;32098;49.448;7.904;2023-04-15T03:06:41;3.83;;;2.03;;
46391;SDS011;32098;49.448;7.904;2023-04-15T03:09:08;4.17;;;2.03;;
46391;SDS011;32098;49.448;7.904;2023-04-15T03:11:37;3.27;;;1.83;;
46391;SDS011;32098;49.448;7.904;2023-04-15T03:14:07;3.77;;;1.87;;
46391;SDS011;32098;49.448;7.904;2023-04-15T03:16:40;3.60;;;1.73;;
46391;SDS011;32098;49.448;7.904;2023-04-15T03:19:07;4.33;;;1.90;;
46391;SDS011;32098;49.448;7.904;2023-04-15T03:21:34;3.90;;;1.73;;
46391;SDS011;32098;49.448;7.904;2023-04-15T03:24:01;2.60;;;1.87;;
46391;SDS011;32098;49.448;7.904;2023-04-15T03:29:53;4.63;;;1.77;;
46391;SDS011;32098;49.448;7.904;2023-04-15T03:32:24;4.70;;;2.10;;
46391;SDS011;32098;49.448;7.904;2023-04-15T03:34:51;3.30;;;1.77;;
46391;SDS011;32098;49.448;7.904;2023-04-15T03:37:18;4.53;;;2.10;;
46391;SDS011;32098;49.448;7.904;2023-04-15T03:42:46;5.43;;;1.93;;
46391;SDS011;32098;49.448;7.904;2023-04-15T03:45:19;2.97;;;2.00;;
46391;SDS011;32098;49.448;7.904;2023-04-15T03:47:46;3.70;;;1.70;;
46391;SDS011;32098;49.448;7.904;2023-04-15T03:50:15;6.67;;;2.00;;
46391;SDS011;32098;49.448;7.904;2023-04-15T03:52:42;4.00;;;2.00;;
46391;SDS011;32098;49.448;7.904;2023-04-15T03:55:10;2.60;;;1.67;;
46391;SDS011;32098;49.448;7.904;2023-04-15T04:00:25;3.30;;;2.00;;
46391;SDS011;32098;49.448;7.904;2023-04-15T04:02:51;4.47;;;2.03;;
46391;SDS011;32098;49.448;7.904;2023-04-15T04:05:18;4.23;;;2.07;;
46391;SDS011;32098;49.448;7.904;2023-04-15T04:07:45;5.13;;;2.30;;
46391;SDS011;32098;49.448;7.904;2023-04-15T04:10:12;3.97;;;2.27;;
46391;SDS011;32098;49.448;7.904;2023-04-15T04:12:39;3.83;;;1.73;;
46391;SDS011;32098;49.448;7.904;2023-04-15T04:15:06;3.00;;;1.60;;
46391;SDS011;32098;49.448;7.904;2023-04-15T04:17:33;3.33;;;2.03;;
46391;SDS011;32098;49.448;7.904;2023-04-15T04:20:01;4.77;;;2.07;;
46391;SDS011;32098;49.448;7.904;2023-04-15T04:22:28;7.67;;;2.20;;
46391;SDS011;32098;49.448;7.904;2023-04-15T04:28:08;2.90;;;2.00;;
46391;SDS011;32098;49.448;7.904;2023-04-15T04:30:36;5.60;;;2.30;;
46391;SDS011;32098;49.448;7.904;2023-04-15T04:36:16;5.53;;;2.23;;
46391;SDS011;32098;49.448;7.904;2023-04-15T04:41:33;4.83;;;2.13;;
46391;SDS011;32098;49.448;7.904;2023-04-15T04:43:59;2.47;;;2.07;;
46391;SDS011;32098;49.448;7.904;2023-04-15T04:46:26;4.53;;;2.20;;
46391;SDS011;32098;49.448;7.904;2023-04-15T04:48:53;3.10;;;1.90;;
46391;SDS011;32098;49.448;7.904;2023-04-15T04:51:20;2.60;;;1.93;;
46391;SDS011;32098;49.448;7.904;2023-04-15T04:54:02;4.13;;;2.60;;
46391;SDS011;32098;49.448;7.904;2023-04-15T04:56:29;3.77;;;2.57;;
46391;SDS011;32098;49.448;7.904;2023-04-15T04:58:58;6.97;;;3.30;;
46391;SDS011;32098;49.448;7.904;2023-04-15T05:01:25;5.03;;;3.20;;
46391;SDS011;32098;49.448;7.904;2023-04-15T05:03:53;8.63;;;3.27;;
46391;SDS011;32098;49.448;7.904;2023-04-15T05:06:20;4.00;;;3.10;;
46391;SDS011;32098;49.448;7.904;2023-04-15T05:08:50;4.47;;;2.73;;
46391;SDS011;32098;49.448;7.904;2023-04-15T05:11:16;6.50;;;3.13;;
46391;SDS011;32098;49.448;7.904;2023-04-15T05:13:43;5.27;;;2.87;;
46391;SDS011;32098;49.448;7.904;2023-04-15T05:16:10;5.67;;;2.80;;
46391;SDS011;32098;49.448;7.904;2023-04-15T05:18:36;5.13;;;2.50;;
46391;SDS011;32098;49.448;7.904;2023-04-15T05:21:13;3.80;;;2.20;;
46391;SDS011;32098;49.448;7.904;2023-04-15T05:23:40;4.03;;;2.07;;
46391;SDS011;32098;49.448;7.904;2023-04-15T05:26:07;4.90;;;2.17;;
46391;SDS011;32098;49.448;7.904;2023-04-15T05:28:33;5.47;;;2.30;;
46391;SDS011;32098;49.448;7.904;2023-04-15T05:33:47;5.97;;;2.10;;
46391;SDS011;32098;49.448;7.904;2023-04-15T05:36:26;1.97;;;1.70;;
46391;SDS011;32098;49.448;7.904;2023-04-15T05:38:55;3.17;;;2.00;;
46391;SDS011;32098;49.448;7.904;2023-04-15T05:41:31;2.47;;;1.80;;
46391;SDS011;32098;49.448;7.904;2023-04-15T05:43:58;3.13;;;1.73;;
46391;SDS011;32098;49.448;7.904;2023-04-15T05:49:51;3.80;;;1.73;;
46391;SDS011;32098;49.448;7.904;2023-04-15T05:52:18;2.63;;;1.90;;
46391;SDS011;32098;49.448;7.904;2023-04-15T05:54:48;4.57;;;1.67;;
46391;SDS011;32098;49.448;7.904;2023-04-15T05:57:15;2.20;;;1.57;;
46391;SDS011;32098;49.448;7.904;2023-04-15T05:59:45;3.47;;;1.50;;
46391;SDS011;32098;49.448;7.904;2023-04-15T06:05:09;3.77;;;1.90;;
46391;SDS011;32098;49.448;7.904;2023-04-15T06:07:37;4.77;;;1.87;;
46391;SDS011;32098;49.448;7.904;2023-04-15T06:10:04;5.40;;;1.60;;
46391;SDS011;32098;49.448;7.904;2023-04-15T06:12:31;3.67;;;2.10;;
46391;SDS011;32098;49.448;7.904;2023-04-15T06:15:01;4.07;;;1.73;;
46391;SDS011;32098;49.448;7.904;2023-04-15T06:20:34;5.43;;;1.70;;
46391;SDS011;32098;49.448;7.904;2023-04-15T06:23:07;4.00;;;1.87;;
46391;SDS011;32098;49.448;7.904;2023-04-15T06:25:34;4.20;;;1.50;;
46391;SDS011;32098;49.448;7.904;2023-04-15T06:28:01;2.40;;;1.40;;
46391;SDS011;32098;49.448;7.904;2023-04-15T06:30:43;2.57;;;1.57;;
46391;SDS011;32098;49.448;7.904;2023-04-15T06:33:10;4.97;;;2.00;;
46391;SDS011;32098;49.448;7.904;2023-04-15T06:35:40;4.00;;;1.53;;
46391;SDS011;32098;49.448;7.904;2023-04-15T06:38:20;3.03;;;1.70;;
46391;SDS011;32098;49.448;7.904;2023-04-15T06:40:47;3.40;;;2.10;;
46391;SDS011;32098;49.448;7.904;2023-04-15T06:43:15;3.37;;;1.90;;
46391;SDS011;32098;49.448;7.904;2023-04-15T06:45:41;4.73;;;1.97;;
46391;SDS011;32098;49.448;7.904;2023-04-15T06:48:11;4.73;;;1.83;;
46391;SDS011;32098;49.448;7.904;2023-04-15T06:54:38;3.50;;;1.60;;
46391;SDS011;32098;49.448;7.904;2023-04-15T06:57:06;4.80;;;1.87;;
46391;SDS011;32098;49.448;7.904;2023-04-15T06:59:33;3.47;;;2.03;;
46391;SDS011;32098;49.448;7.904;2023-04-15T07:02:00;3.33;;;1.60;;
46391;SDS011;32098;49.448;7.904;2023-04-15T07:04:27;3.53;;;1.70;;
46391;SDS011;32098;49.448;7.904;2023-04-15T07:06:54;3.60;;;1.40;;
46391;SDS011;32098;49.448;7.904;2023-04-15T07:09:22;4.83;;;1.77;;
46391;SDS011;32098;49.448;7.904;2023-04-15T07:11:49;4.67;;;1.57;;
46391;SDS011;32098;49.448;7.904;2023-04-15T07:14:17;6.13;;;4.00;;
46391;SDS011;32098;49.448;7.904;2023-04-15T07:16:59;5.40;;;2.77;;
46391;SDS011;32098;49.448;7.904;2023-04-15T07:19:26;6.27;;;3.10;;
46391;SDS011;32098;49.448;7.904;2023-04-15T07:21:53;2.47;;;1.83;;
46391;SDS011;32098;49.448;7.904;2023-04-15T07:24:35;4.40;;;2.10;;
46391;SDS011;32098;49.448;7.904;2023-04-15T07:27:01;3.75;;;2.05;;
46391;SDS011;32098;49.448;7.904;2023-04-15T07:29:29;3.10;;;1.77;;
46391;SDS011;32098;49.448;7.904;2023-04-15T07:34:49;5.22;;;2.20;;
46391;SDS011;32098;49.448;7.904;2023-04-15T07:37:16;4.75;;;2.28;;
46391;SDS011;32098;49.448;7.904;2023-04-15T07:42:37;7.28;;;2.13;;
46391;SDS011;32098;49.448;7.904;2023-04-15T07:45:06;3.15;;;2.13;;
46391;SDS011;32098;49.448;7.904;2023-04-15T07:47:34;4.28;;;2.10;;
46391;SDS011;32098;49.448;7.904;2023-04-15T07:50:02;6.72;;;2.50;;
46391;SDS011;32098;49.448;7.904;2023-04-15T07:52:29;6.65;;;2.38;;
46391;SDS011;32098;49.448;7.904;2023-04-15T07:57:48;11.57;;;2.55;;
46391;SDS011;32098;49.448;7.904;2023-04-15T08:00:22;6.13;;;2.50;;
46391;SDS011;32098;49.448;7.904;2023-04-15T08:02:50;5.72;;;3.20;;
46391;SDS011;32098;49.448;7.904;2023-04-15T08:05:20;7.55;;;3.72;;
46391;SDS011;32098;49.448;7.904;2023-04-15T08:07:47;5.60;;;3.08;;
46391;SDS011;32098;49.448;7.904;2023-04-15T08:10:14;4.40;;;2.38;;
46391;SDS011;32098;49.448;7.904;2023-04-15T08:12:41;5.38;;;2.40;;
46391;SDS011;32098;49.448;7.904;2023-04-15T08:15:08;6.18;;;2.65;;
46391;SDS011;32098;49.448;7.904;2023-04-15T08:17:40;5.22;;;2.17;;
46391;SDS011;32098;49.448;7.904;2023-04-15T08:20:07;4.80;;;2.40;;
46391;SDS011;32098;49.448;7.904;2023-04-15T08:25:45;2.92;;;1.88;;
46391;SDS011;32098;49.448;7.904;2023-04-15T08:28:12;4.03;;;1.65;;
46391;SDS011;32098;49.448;7.904;2023-04-15T08:30:39;2.60;;;1.73;;
46391;SDS011;32098;49.448;7.904;2023-04-15T08:33:06;5.00;;;1.95;;
46391;SDS011;32098;49.448;7.904;2023-04-15T08:35:33;4.10;;;1.30;;
46391;SDS011;32098;49.448;7.904;2023-04-15T08:37:59;3.33;;;1.42;;
46391;SDS011;32098;49.448;7.904;2023-04-15T08:40:26;4.40;;;1.70;;
46391;SDS011;32098;49.448;7.904;2023-04-15T08:43:04;3.47;;;1.35;;
46391;SDS011;32098;49.448;7.904;2023-04-15T08:45:42;4.53;;;2.20;;
46391;SDS011;32098;49.448;7.904;2023-04-15T08:48:10;4.20;;;1.50;;
46391;SDS011;32098;49.448;7.904;2023-04-15T08:53:43;2.83;;;1.45;;
46391;SDS011;32098;49.448;7.904;2023-04-15T08:56:12;3.65;;;1.77;;
46391;SDS011;32098;49.448;7.904;2023-04-15T08:58:42;4.00;;;1.70;;
46391;SDS011;32098;49.448;7.904;2023-04-15T09:03:50;4.32;;;1.50;;
46391;SDS011;32098;49.448;7.904;2023-04-15T09:06:28;4.35;;;1.30;;
46391;SDS011;32098;49.448;7.904;2023-04-15T09:08:55;2.65;;;1.45;;
46391;SDS011;32098;49.448;7.904;2023-04-15T09:11:23;7.45;;;1.95;;
46391;SDS011;32098;49.448;7.904;2023-04-15T09:13:51;3.83;;;1.80;;
46391;SDS011;32098;49.448;7.904;2023-04-15T09:16:30;4.07;;;1.95;;
46391;SDS011;32098;49.448;7.904;2023-04-15T09:18:58;3.13;;;1.75;;
46391;SDS011;32098;49.448;7.904;2023-04-15T09:21:30;3.75;;;1.63;;
46391;SDS011;32098;49.448;7.904;2023-04-15T09:23:58;3.97;;;1.52;;
46391;SDS011;32098;49.448;7.904;2023-04-15T09:29:27;4.83;;;1.60;;
46391;SDS011;32098;49.448;7.904;2023-04-15T09:32:08;3.27;;;1.43;;
46391;SDS011;32098;49.448;7.904;2023-04-15T09:34:36;3.43;;;1.30;;
46391;SDS011;32098;49.448;7.904;2023-04-15T09:37:03;4.23;;;1.30;;
46391;SDS011;32098;49.448;7.904;2023-04-15T09:39:49;4.43;;;1.30;;
46391;SDS011;32098;49.448;7.904;2023-04-15T09:42:18;2.40;;;1.00;;
46391;SDS011;32098;49.448;7.904;2023-04-15T09:44:52;2.70;;;1.20;;
46391;SDS011;32098;49.448;7.904;2023-04-15T09:51:05;3.33;;;1.37;;
46391;SDS011;32098;49.448;7.904;2023-04-15T09:53:33;5.83;;;1.80;;
46391;SDS011;32098;49.448;7.904;2023-04-15T09:59:25;4.57;;;2.00;;
46391;SDS011;32098;49.448;7.904;2023-04-15T10:01:54;3.90;;;1.60;;
46391;SDS011;32098;49.448;7.904;2023-04-15T10:04:21;4.13;;;1.60;;
46391;SDS011;32098;49.448;7.904;2023-04-15T10:06:49;4.33;;;1.60;;
46391;SDS011;32098;49.448;7.904;2023-04-15T10:11:47;3.17;;;1.67;;
46391;SDS011;32098;49.448;7.904;2023-04-15T10:14:15;4.30;;;1.90;;
46391;SDS011;32098;49.448;7.904;2023-04-15T10:16:44;4.80;;;1.67;;
46391;SDS011;32098;49.448;7.904;2023-04-15T10:22:02;6.90;;;2.30;;
46391;SDS011;32098;49.448;7.904;2023-04-15T10:24:32;4.40;;;1.90;;
46391;SDS011;32098;49.448;7.904;2023-04-15T10:29:32;4.50;;;1.97;;
46391;SDS011;32098;49.448;7.904;2023-04-15T10:32:09;2.70;;;1.83;;
46391;SDS011;32098;49.448;7.904;2023-04-15T10:34:36;7.37;;;2.03;;
46391;SDS011;32098;49.448;7.904;2023-04-15T10:37:04;8.07;;;2.57;;
46391;SDS011;32098;49.448;7.904;2023-04-15T10:39:38;5.32;;;1.90;;
46391;SDS011;32098;49.448;7.904;2023-04-15T10:42:16;5.57;;;1.85;;
46391;SDS011;32098;49.448;7.904;2023-04-15T10:44:48;7.40;;;2.17;;
46391;SDS011;32098;49.448;7.904;2023-04-15T10:47:19;5.28;;;1.80;;
46391;SDS011;32098;49.448;7.904;2023-04-15T10:49:58;4.20;;;1.80;;
46391;SDS011;32098;49.448;7.904;2023-04-15T10:52:27;4.73;;;2.10;;
46391;SDS011;32098;49.448;7.904;2023-04-15T10:57:37;4.75;;;1.83;;
46391;SDS011;32098;49.448;7.904;2023-04-15T11:02:51;4.70;;;1.93;;
46391;SDS011;32098;49.448;7.904;2023-04-15T11:05:19;3.53;;;2.07;;
46391;SDS011;32098;49.448;7.904;2023-04-15T11:08:02;5.10;;;2.37;;
46391;SDS011;32098;49.448;7.904;2023-04-15T11:12:57;5.57;;;2.10;;
46391;SDS011;32098;49.448;7.904;2023-04-15T11:15:32;5.20;;;2.23;;
46391;SDS011;32098;49.448;7.904;2023-04-15T11:20:55;4.30;;;2.40;;
46391;SDS011;32098;49.448;7.904;2023-04-15T11:23:28;6.82;;;2.70;;
46391;SDS011;32098;49.448;7.904;2023-04-15T11:26:00;5.47;;;2.83;;
46391;SDS011;32098;49.448;7.904;2023-04-15T11:28:31;5.77;;;2.60;;
46391;SDS011;32098;49.448;7.904;2023-04-15T11:31:09;3.57;;;2.50;;
46391;SDS011;32098;49.448;7.904;2023-04-15T11:33:52;6.17;;;2.70;;
46391;SDS011;32098;49.448;7.904;2023-04-15T11:36:29;5.87;;;2.70;;
46391;SDS011;32098;49.448;7.904;2023-04-15T11:46:15;6.70;;;2.70;;
46391;SDS011;32098;49.448;7.904;2023-04-15T11:48:43;5.00;;;2.63;;
46391;SDS011;32098;49.448;7.904;2023-04-15T11:51:14;4.57;;;2.40;;
46391;SDS011;32098;49.448;7.904;2023-04-15T11:53:49;5.35;;;2.22;;
46391;SDS011;32098;49.448;7.904;2023-04-15T11:56:21;4.53;;;2.17;;
46391;SDS011;32098;49.448;7.904;2023-04-15T12:01:36;3.80;;;1.83;;
46391;SDS011;32098;49.448;7.904;2023-04-15T12:04:14;3.80;;;1.92;;
46391;SDS011;32098;49.448;7.904;2023-04-15T12:09:42;4.72;;;2.08;;
46391;SDS011;32098;49.448;7.904;2023-04-15T12:12:11;4.50;;;1.50;;
46391;SDS011;32098;49.448;7.904;2023-04-15T12:14:39;4.85;;;1.83;;
46391;SDS011;32098;49.448;7.904;2023-04-15T12:17:09;4.55;;;1.90;;
46391;SDS011;32098;49.448;7.904;2023-04-15T12:19:39;3.03;;;1.95;;
46391;SDS011;32098;49.448;7.904;2023-04-15T12:25:34;2.85;;;1.90;;
46391;SDS011;32098;49.448;7.904;2023-04-15T12:30:49;2.75;;;1.45;;
46391;SDS011;32098;49.448;7.904;2023-04-15T12:33:19;1.98;;;1.50;;
46391;SDS011;32098;49.448;7.904;2023-04-15T12:35:48;3.70;;;1.70;;
46391;SDS011;32098;49.448;7.904;2023-04-15T12:38:15;3.30;;;1.60;;
46391;SDS011;32098;49.448;7.904;2023-04-15T12:40:45;4.57;;;2.10;;
46391;SDS011;32098;49.448;7.904;2023-04-15T12:43:12;4.95;;;1.85;;
46391;SDS011;32098;49.448;7.904;2023-04-15T12:45:39;4.10;;;1.60;;
46391;SDS011;32098;49.448;7.904;2023-04-15T12:48:06;5.43;;;1.95;;
46391;SDS011;32098;49.448;7.904;2023-04-15T12:50:51;3.60;;;1.40;;
46391;SDS011;32098;49.448;7.904;2023-04-15T12:53:17;3.97;;;1.87;;
46391;SDS011;32098;49.448;7.904;2023-04-15T12:55:45;3.27;;;1.97;;
46391;SDS011;32098;49.448;7.904;2023-04-15T12:58:25;5.70;;;1.60;;
46391;SDS011;32098;49.448;7.904;2023-04-15T13:01:05;4.93;;;1.57;;
46391;SDS011;32098;49.448;7.904;2023-04-15T13:03:32;2.83;;;1.40;;
46391;SDS011;32098;49.448;7.904;2023-04-15T13:05:59;2.10;;;1.37;;
46391;SDS011;32098;49.448;7.904;2023-04-15T13:08:27;3.83;;;1.30;;
46391;SDS011;32098;49.448;7.904;2023-04-15T13:14:19;1.60;;;0.93;;
46391;SDS011;32098;49.448;7.904;2023-04-15T13:16:52;2.60;;;1.23;;
46391;SDS011;32098;49.448;7.904;2023-04-15T13:22:18;1.30;;;1.17;;
46391;SDS011;32098;49.448;7.904;2023-04-15T13:28:05;2.67;;;1.30;;
46391;SDS011;32098;49.448;7.904;2023-04-15T13:30:32;1.97;;;1.10;;
46391;SDS011;32098;49.448;7.904;2023-04-15T13:36:02;1.77;;;0.87;;
46391;SDS011;32098;49.448;7.904;2023-04-15T13:38:32;3.57;;;1.00;;
46391;SDS011;32098;49.448;7.904;2023-04-15T13:40:58;2.27;;;1.30;;
46391;SDS011;32098;49.448;7.904;2023-04-15T13:43:25;1.20;;;1.07;;
46391;SDS011;32098;49.448;7.904;2023-04-15T13:45:52;1.03;;;0.70;;
46391;SDS011;32098;49.448;7.904;2023-04-15T13:48:19;3.07;;;0.80;;
46391;SDS011;32098;49.448;7.904;2023-04-15T13:50:46;2.33;;;1.20;;
46391;SDS011;32098;49.448;7.904;2023-04-15T13:56:12;1.90;;;1.10;;
46391;SDS011;32098;49.448;7.904;2023-04-15T13:58:42;3.70;;;1.20;;
46391;SDS011;32098;49.448;7.904;2023-04-15T14:01:09;1.83;;;1.00;;
46391;SDS011;32098;49.448;7.904;2023-04-15T14:03:47;1.57;;;0.90;;
46391;SDS011;32098;49.448;7.904;2023-04-15T14:06:14;3.07;;;1.10;;
46391;SDS011;32098;49.448;7.904;2023-04-15T14:08:41;2.20;;;1.20;;
46391;SDS011;32098;49.448;7.904;2023-04-15T14:11:15;1.30;;;1.20;;
46391;SDS011;32098;49.448;7.904;2023-04-15T14:13:42;1.73;;;1.00;;
46391;SDS011;32098;49.448;7.904;2023-04-15T14:16:12;3.47;;;1.20;;
46391;SDS011;32098;49.448;7.904;2023-04-15T14:18:42;2.43;;;1.10;;
46391;SDS011;32098;49.448;7.904;2023-04-15T14:21:10;1.57;;;1.00;;
46391;SDS011;32098;49.448;7.904;2023-04-15T14:23:37;1.47;;;0.97;;
46391;SDS011;32098;49.448;7.904;2023-04-15T14:26:18;1.07;;;0.70;;
46391;SDS011;32098;49.448;7.904;2023-04-15T14:28:45;1.33;;;0.53;;
46391;SDS011;32098;49.448;7.904;2023-04-15T14:31:13;1.37;;;0.67;;
46391;SDS011;32098;49.448;7.904;2023-04-15T14:33:40;1.40;;;0.60;;
46391;SDS011;32098;49.448;7.904;2023-04-15T14:36:08;2.03;;;0.80;;
46391;SDS011;32098;49.448;7.904;2023-04-15T14:38:35;0.80;;;0.80;;
46391;SDS011;32098;49.448;7.904;2023-04-15T14:45:08;0.80;;;0.60;;
46391;SDS011;32098;49.448;7.904;2023-04-15T14:47:36;0.70;;;0.70;;
46391;SDS011;32098;49.448;7.904;2023-04-15T14:50:03;1.70;;;0.90;;
46391;SDS011;32098;49.448;7.904;2023-04-15T14:52:30;1.87;;;0.70;;
46391;SDS011;32098;49.448;7.904;2023-04-15T14:55:07;0.90;;;0.70;;
46391;SDS011;32098;49.448;7.904;2023-04-15T14:57:39;1.77;;;0.80;;
46391;SDS011;32098;49.448;7.904;2023-04-15T15:00:07;1.67;;;0.90;;
46391;SDS011;32098;49.448;7.904;2023-04-15T15:05:27;1.07;;;0.80;;
46391;SDS011;32098;49.448;7.904;2023-04-15T15:07:57;1.63;;;0.70;;
46391;SDS011;32098;49.448;7.904;2023-04-15T15:13:28;0.70;;;0.70;;
46391;SDS011;32098;49.448;7.904;2023-04-15T15:15:55;1.10;;;0.83;;
46391;SDS011;32098;49.448;7.904;2023-04-15T15:18:23;1.90;;;0.83;;
46391;SDS011;32098;49.448;7.904;2023-04-15T15:20:53;1.37;;;0.90;;
46391;SDS011;32098;49.448;7.904;2023-04-15T15:23:20;0.87;;;0.83;;
46391;SDS011;32098;49.448;7.904;2023-04-15T15:31:34;0.80;;;0.70;;
46391;SDS011;32098;49.448;7.904;2023-04-15T15:34:02;1.07;;;0.60;;
46391;SDS011;32098;49.448;7.904;2023-04-15T15:36:29;1.57;;;0.70;;
46391;SDS011;32098;49.448;7.904;2023-04-15T15:38:59;1.27;;;1.13;;
46391;SDS011;32098;49.448;7.904;2023-04-15T15:41:26;1.00;;;0.70;;
46391;SDS011;32098;49.448;7.904;2023-04-15T15:46:25;1.03;;;0.93;;
46391;SDS011;32098;49.448;7.904;2023-04-15T15:48:53;1.10;;;1.00;;
46391;SDS011;32098;49.448;7.904;2023-04-15T15:51:20;1.07;;;1.00;;
46391;SDS011;32098;49.448;7.904;2023-04-15T15:53:52;1.63;;;0.97;;
46391;SDS011;32098;49.448;7.904;2023-04-15T15:56:20;1.17;;;0.83;;
46391;SDS011;32098;49.448;7.904;2023-04-15T15:58:47;1.33;;;0.70;;
46391;SDS011;32098;49.448;7.904;2023-04-15T16:01:13;2.40;;;0.90;;
46391;SDS011;32098;49.448;7.904;2023-04-15T16:06:46;1.17;;;1.07;;
46391;SDS011;32098;49.448;7.904;2023-04-15T16:09:13;2.60;;;1.30;;
46391;SDS011;32098;49.448;7.904;2023-04-15T16:11:45;1.63;;;1.53;;
46391;SDS011;32098;49.448;7.904;2023-04-15T16:14:12;1.63;;;1.53;;
46391;SDS011;32098;49.448;7.904;2023-04-15T16:16:39;1.93;;;1.70;;
46391;SDS011;32098;49.448;7.904;2023-04-15T16:22:37;2.77;;;1.77;;
46391;SDS011;32098;49.448;7.904;2023-04-15T16:25:04;1.70;;;1.60;;
46391;SDS011;32098;49.448;7.904;2023-04-15T16:27:31;1.80;;;1.70;;
46391;SDS011;32098;49.448;7.904;2023-04-15T16:36:16;1.87;;;1.67;;
46391;SDS011;32098;49.448;7.904;2023-04-15T16:38:44;1.70;;;1.60;;
46391;SDS011;32098;49.448;7.904;2023-04-15T16:41:14;2.20;;;2.00;;
46391;SDS011;32098;49.448;7.904;2023-04-15T16:43:51;2.20;;;2.00;;
46391;SDS011;32098;49.448;7.904;2023-04-15T16:46:18;2.03;;;1.83;;
46391;SDS011;32098;49.448;7.904;2023-04-15T16:48:47;2.30;;;2.10;;
46391;SDS011;32098;49.448;7.904;2023-04-15T16:51:14;2.50;;;2.30;;
46391;SDS011;32098;49.448;7.904;2023-04-15T16:53:49;2.93;;;2.27;;
46391;SDS011;32098;49.448;7.904;2023-04-15T16:56:16;2.23;;;2.13;;
46391;SDS011;32098;49.448;7.904;2023-04-15T16:58:43;2.30;;;2.10;;
46391;SDS011;32098;49.448;7.904;2023-04-15T17:01:12;2.30;;;1.97;;
46391;SDS011;32098;49.448;7.904;2023-04-15T17:03:42;2.73;;;2.10;;
46391;SDS011;32098;49.448;7.904;2023-04-15T17:06:22;2.63;;;1.90;;
46391;SDS011;32098;49.448;7.904;2023-04-15T17:08:49;2.30;;;2.10;;
46391;SDS011;32098;49.448;7.904;2023-04-15T17:11:17;1.87;;;1.77;;
46391;SDS011;32098;49.448;7.904;2023-04-15T17:13:47;1.93;;;1.80;;
46391;SDS011;32098;49.448;7.904;2023-04-15T17:16:16;2.60;;;2.30;;
46391;SDS011;32098;49.448;7.904;2023-04-15T17:18:43;2.70;;;2.50;;
46391;SDS011;32098;49.448;7.904;2023-04-15T17:21:12;2.40;;;2.20;;
46391;SDS011;32098;49.448;7.904;2023-04-15T17:23:40;2.83;;;2.63;;
46391;SDS011;32098;49.448;7.904;2023-04-15T17:26:07;3.37;;;3.07;;
46391;SDS011;32098;49.448;7.904;2023-04-15T17:28:34;3.47;;;2.80;;
46391;SDS011;32098;49.448;7.904;2023-04-15T17:31:02;3.47;;;3.17;;
46391;SDS011;32098;49.448;7.904;2023-04-15T17:33:30;3.53;;;3.23;;
46391;SDS011;32098;49.448;7.904;2023-04-15T17:36:16;3.70;;;3.30;;
46391;SDS011;32098;49.448;7.904;2023-04-15T17:38:43;4.17;;;3.33;;
46391;SDS011;32098;49.448;7.904;2023-04-15T17:41:11;3.60;;;3.30;;
46391;SDS011;32098;49.448;7.904;2023-04-15T17:43:38;4.07;;;3.73;;
46391;SDS011;32098;49.448;7.904;2023-04-15T17:46:05;4.77;;;4.20;;
46391;SDS011;32098;49.448;7.904;2023-04-15T17:48:33;4.07;;;3.70;;
46391;SDS011;32098;49.448;7.904;2023-04-15T17:51:00;5.73;;;4.10;;
46391;SDS011;32098;49.448;7.904;2023-04-15T17:53:27;4.30;;;3.90;;
46391;SDS011;32098;49.448;7.904;2023-04-15T17:56:00;4.73;;;4.33;;
46391;SDS011;32098;49.448;7.904;2023-04-15T17:58:26;5.53;;;4.97;;
46391;SDS011;32098;49.448;7.904;2023-04-15T18:00:53;5.57;;;4.60;;
46391;SDS011;32098;49.448;7.904;2023-04-15T18:03:20;4.83;;;4.43;;